Time;durP1;ratioP1;P1;durP2;ratioP2;P2;SDS_P1;SDS_P2;PMS_P1;PMS_P2;Temp;Humidity;BMP_temperature;BMP_pressure;BME280_temperature;BME280_humidity;BME280_pressure;Samples;Min_cycle;Max_cycle;Signal;HPM_P1;HPM_P2
2021/11/03 00:02:05;;;;;;;7.27;4.43;;;;;;;;;;5056541;28;20286;-63
2021/11/03 00:04:31;;;;;;;4.80;4.40;;;;;;;;;;5055426;28;20259;-63
2021/11/03 00:06:57;;;;;;;5.00;4.60;;;;;;;;;;5055495;28;20483;-64
2021/11/03 00:09:22;;;;;;;7.10;5.70;;;;;;;;;;5055770;28;20457;-64
2021/11/03 00:11:47;;;;;;;7.20;5.03;;;;;;;;;;5055457;28;20229;-63
2021/11/03 00:14:12;;;;;;;6.17;5.50;;;;;;;;;;5056161;28;20213;-63
2021/11/03 00:16:38;;;;;;;6.63;6.10;;;;;;;;;;5056266;28;20220;-63
2021/11/03 00:19:03;;;;;;;6.30;5.47;;;;;;;;;;5056064;28;20248;-63
2021/11/03 00:21:28;;;;;;;6.33;5.00;;;;;;;;;;5055740;28;20218;-62
2021/11/03 00:23:54;;;;;;;5.50;5.00;;;;;;;;;;5056396;28;20255;-63
2021/11/03 00:26:19;;;;;;;5.37;4.73;;;;;;;;;;5055590;28;20217;-62
2021/11/03 00:28:44;;;;;;;7.40;5.60;;;;;;;;;;5056128;28;20237;-63
2021/11/03 00:31:10;;;;;;;6.00;5.40;;;;;;;;;;5055630;28;20720;-62
2021/11/03 00:33:35;;;;;;;6.63;6.03;;;;;;;;;;5056124;28;20228;-63
2021/11/03 00:36:01;;;;;;;11.07;5.33;;;;;;;;;;5055757;28;20602;-62
2021/11/03 00:38:26;;;;;;;6.80;5.00;;;;;;;;;;5055559;28;20227;-62
2021/11/03 00:40:52;;;;;;;5.77;5.27;;;;;;;;;;5055867;28;20304;-62
2021/11/03 00:43:17;;;;;;;6.20;5.60;;;;;;;;;;5055240;28;20663;-62
2021/11/03 00:45:43;;;;;;;6.67;6.07;;;;;;;;;;5055616;28;20318;-62
2021/11/03 00:48:08;;;;;;;5.90;5.07;;;;;;;;;;5054966;28;20221;-62
2021/11/03 00:50:34;;;;;;;6.07;5.47;;;;;;;;;;5054397;28;20217;-62
2021/11/03 00:52:59;;;;;;;5.73;5.13;;;;;;;;;;5055963;28;20217;-63
2021/11/03 00:55:24;;;;;;;5.30;4.83;;;;;;;;;;5055181;28;20221;-63
2021/11/03 00:57:50;;;;;;;6.60;6.00;;;;;;;;;;5055510;28;20279;-63
2021/11/03 01:00:17;;;;;;;6.27;5.77;;;;;;;;;;5054807;28;20651;-63
2021/11/03 01:02:43;;;;;;;5.30;4.80;;;;;;;;;;5055519;28;20430;-63
2021/11/03 01:05:11;;;;;;;6.50;6.00;;;;;;;;;;5055248;28;20474;-63
2021/11/03 01:07:37;;;;;;;7.13;6.43;;;;;;;;;;5054881;28;20229;-62
2021/11/03 01:10:04;;;;;;;5.90;5.30;;;;;;;;;;5055214;28;20759;-62
2021/11/03 01:12:29;;;;;;;6.00;5.40;;;;;;;;;;5054746;28;20217;-63
2021/11/03 01:14:55;;;;;;;5.87;5.33;;;;;;;;;;5055261;28;20785;-63
2021/11/03 01:17:20;;;;;;;6.20;5.20;;;;;;;;;;5054912;28;20263;-63
2021/11/03 01:19:45;;;;;;;7.23;4.83;;;;;;;;;;5055002;28;20232;-63
2021/11/03 01:22:10;;;;;;;6.40;5.80;;;;;;;;;;5055157;28;20637;-62
2021/11/03 01:24:36;;;;;;;5.63;5.10;;;;;;;;;;5054851;28;20245;-62
2021/11/03 01:27:01;;;;;;;6.00;5.50;;;;;;;;;;5055121;28;20259;-62
2021/11/03 01:29:26;;;;;;;8.83;5.80;;;;;;;;;;5054482;28;20320;-62
2021/11/03 01:31:51;;;;;;;4.87;4.47;;;;;;;;;;5054879;28;20226;-62
2021/11/03 01:34:17;;;;;;;6.33;5.33;;;;;;;;;;5054407;28;20298;-63
2021/11/03 01:36:42;;;;;;;5.20;4.70;;;;;;;;;;5055000;28;20217;-62
2021/11/03 01:39:08;;;;;;;6.90;5.73;;;;;;;;;;5054748;28;20225;-63
2021/11/03 01:41:35;;;;;;;6.57;5.63;;;;;;;;;;5053185;28;20301;-63
2021/11/03 01:44:12;;;;;;;5.57;5.00;;;;;;;;;;5054677;28;20283;-62
2021/11/03 01:46:42;;;;;;;9.00;6.10;;;;;;;;;;5054382;28;20448;-63
2021/11/03 01:49:13;;;;;;;6.30;5.77;;;;;;;;;;5054699;28;20478;-62
2021/11/03 01:51:45;;;;;;;6.20;5.60;;;;;;;;;;5054097;28;20479;-63
2021/11/03 01:54:13;;;;;;;6.20;5.60;;;;;;;;;;5054542;28;20455;-62
2021/11/03 01:56:39;;;;;;;7.10;6.07;;;;;;;;;;5053305;28;20451;-63
2021/11/03 01:59:16;;;;;;;6.57;5.97;;;;;;;;;;5053449;28;20776;-63
2021/11/03 02:01:41;;;;;;;7.23;6.60;;;;;;;;;;5054455;28;20220;-63
2021/11/03 02:04:06;;;;;;;6.87;6.17;;;;;;;;;;5054313;28;20487;-62
2021/11/03 02:06:32;;;;;;;10.07;6.20;;;;;;;;;;5053000;28;20217;-63
2021/11/03 02:08:58;;;;;;;10.40;6.27;;;;;;;;;;5054131;28;20221;-62
2021/11/03 02:11:24;;;;;;;10.13;6.93;;;;;;;;;;5053402;28;20312;-63
2021/11/03 02:13:49;;;;;;;7.97;6.57;;;;;;;;;;5054082;28;20210;-63
2021/11/03 02:16:16;;;;;;;7.70;7.00;;;;;;;;;;5053376;28;20460;-63
2021/11/03 02:18:42;;;;;;;7.70;6.73;;;;;;;;;;5053662;28;20213;-63
2021/11/03 02:21:10;;;;;;;7.43;6.73;;;;;;;;;;5053184;28;20555;-63
2021/11/03 02:23:51;;;;;;;7.63;6.83;;;;;;;;;;5052603;28;20213;-63
2021/11/03 02:26:19;;;;;;;7.53;6.47;;;;;;;;;;5053360;28;20452;-63
2021/11/03 02:28:46;;;;;;;7.00;5.63;;;;;;;;;;5053426;28;20452;-63
2021/11/03 02:31:41;;;;;;;8.10;7.30;;;;;;;;;;5053756;28;20483;-63
2021/11/03 02:34:10;;;;;;;8.13;7.33;;;;;;;;;;5053514;28;20464;-62
2021/11/03 02:36:50;;;;;;;8.40;7.60;;;;;;;;;;5053974;28;20456;-62
2021/11/03 02:39:16;;;;;;;7.87;6.93;;;;;;;;;;5053470;28;20947;-64
2021/11/03 02:41:42;;;;;;;9.23;7.60;;;;;;;;;;5053967;28;20864;-63
2021/11/03 02:44:14;;;;;;;8.10;7.30;;;;;;;;;;5053620;28;20529;-63
2021/11/03 02:46:39;;;;;;;7.17;6.40;;;;;;;;;;5053817;28;20214;-63
2021/11/03 02:49:05;;;;;;;6.67;6.07;;;;;;;;;;5053338;28;20788;-62
2021/11/03 02:51:36;;;;;;;6.90;6.30;;;;;;;;;;5053692;28;20217;-63
2021/11/03 02:54:07;;;;;;;6.97;5.90;;;;;;;;;;5053721;28;20220;-63
2021/11/03 02:56:35;;;;;;;6.80;6.20;;;;;;;;;;5053362;28;20537;-63
2021/11/03 02:59:01;;;;;;;6.73;6.10;;;;;;;;;;5053780;28;20471;-63
2021/11/03 03:01:31;;;;;;;6.70;5.90;;;;;;;;;;5053161;28;20798;-63
2021/11/03 03:03:57;;;;;;;5.67;5.17;;;;;;;;;;5053659;28;20318;-62
2021/11/03 03:06:26;;;;;;;7.10;6.47;;;;;;;;;;5053259;28;20464;-63
2021/11/03 03:08:53;;;;;;;6.23;5.60;;;;;;;;;;5053565;28;20456;-63
2021/11/03 03:11:19;;;;;;;7.07;6.07;;;;;;;;;;5056452;28;20438;-63
2021/11/03 03:13:45;;;;;;;6.37;5.63;;;;;;;;;;5057538;28;20447;-62
2021/11/03 03:16:10;;;;;;;7.10;6.00;;;;;;;;;;5056216;28;20430;-62
2021/11/03 03:18:36;;;;;;;6.10;5.50;;;;;;;;;;5057371;28;20220;-63
2021/11/03 03:21:01;;;;;;;7.10;6.40;;;;;;;;;;5057303;28;20232;-62
2021/11/03 03:23:26;;;;;;;6.40;5.80;;;;;;;;;;5057021;28;20213;-62
2021/11/03 03:25:53;;;;;;;6.60;6.00;;;;;;;;;;5057602;28;20304;-63
2021/11/03 03:28:18;;;;;;;7.00;6.40;;;;;;;;;;5057063;28;20567;-61
2021/11/03 03:30:44;;;;;;;7.00;6.40;;;;;;;;;;5057212;28;20547;-61
2021/11/03 03:33:10;;;;;;;6.50;5.90;;;;;;;;;;5053767;28;20684;-61
2021/11/03 03:35:35;;;;;;;6.73;6.13;;;;;;;;;;5057019;28;20460;-62
2021/11/03 03:38:01;;;;;;;7.50;5.37;;;;;;;;;;5066125;28;20248;-63
2021/11/03 03:40:26;;;;;;;6.53;6.03;;;;;;;;;;5063118;28;20236;-62
2021/11/03 03:42:51;;;;;;;6.10;5.60;;;;;;;;;;5070178;28;20240;-62
2021/11/03 03:45:16;;;;;;;6.77;6.27;;;;;;;;;;5069588;28;20616;-61
2021/11/03 03:47:42;;;;;;;6.27;5.77;;;;;;;;;;5063057;28;20224;-62
2021/11/03 03:50:08;;;;;;;6.67;6.07;;;;;;;;;;5063911;28;20282;-63
2021/11/03 03:52:33;;;;;;;6.10;5.50;;;;;;;;;;5069950;28;20783;-62
2021/11/03 03:54:59;;;;;;;7.10;6.50;;;;;;;;;;5069166;28;20441;-62
2021/11/03 03:57:24;;;;;;;5.90;5.40;;;;;;;;;;5062945;28;20655;-62
2021/11/03 03:59:49;;;;;;;6.50;5.90;;;;;;;;;;5064672;28;20223;-62
2021/11/03 04:02:15;;;;;;;6.53;5.60;;;;;;;;;;5069375;28;20216;-62
2021/11/03 04:04:40;;;;;;;6.10;5.60;;;;;;;;;;5068358;28;20224;-62
2021/11/03 04:07:06;;;;;;;6.10;5.50;;;;;;;;;;5062577;28;20308;-62
2021/11/03 04:09:34;;;;;;;7.93;7.00;;;;;;;;;;5064465;28;20221;-62
2021/11/03 04:11:59;;;;;;;6.80;6.27;;;;;;;;;;5069782;28;20225;-61
2021/11/03 04:14:28;;;;;;;6.93;6.23;;;;;;;;;;5067500;28;20438;-62
2021/11/03 04:16:53;;;;;;;7.40;6.60;;;;;;;;;;5062664;28;20221;-62
2021/11/03 04:19:18;;;;;;;7.20;6.50;;;;;;;;;;5064389;28;20446;-63
2021/11/03 04:21:43;;;;;;;7.27;6.60;;;;;;;;;;5068422;28;20240;-63
2021/11/03 04:24:09;;;;;;;7.20;6.50;;;;;;;;;;5067568;28;20660;-63
2021/11/03 04:26:36;;;;;;;7.73;6.13;;;;;;;;;;5062385;28;20247;-62
2021/11/03 04:29:03;;;;;;;7.07;6.47;;;;;;;;;;5063958;28;20233;-63
2021/11/03 04:31:29;;;;;;;10.27;7.57;;;;;;;;;;5068475;28;20548;-62
2021/11/03 04:33:54;;;;;;;7.90;7.13;;;;;;;;;;5063653;28;20445;-62
2021/11/03 04:36:21;;;;;;;7.50;6.80;;;;;;;;;;5062254;28;20236;-62
2021/11/03 04:38:48;;;;;;;7.97;7.30;;;;;;;;;;5068317;28;20614;-61
2021/11/03 04:41:13;;;;;;;8.93;8.13;;;;;;;;;;5068739;28;20506;-63
2021/11/03 04:43:39;;;;;;;8.90;8.10;;;;;;;;;;5063504;28;20786;-63
2021/11/03 04:46:04;;;;;;;8.60;7.77;;;;;;;;;;5061527;28;20216;-62
2021/11/03 04:48:29;;;;;;;7.90;7.20;;;;;;;;;;5067840;28;20227;-63
2021/11/03 04:50:55;;;;;;;7.47;6.77;;;;;;;;;;5068898;28;20224;-62
2021/11/03 04:53:22;;;;;;;8.60;7.90;;;;;;;;;;5062668;28;20551;-62
2021/11/03 04:55:48;;;;;;;8.57;7.70;;;;;;;;;;5062210;28;20229;-63
2021/11/03 04:58:13;;;;;;;7.80;7.10;;;;;;;;;;5068059;28;20812;-62
2021/11/03 05:00:40;;;;;;;7.43;6.90;;;;;;;;;;5068733;28;20459;-62
2021/11/03 05:03:05;;;;;;;8.63;7.43;;;;;;;;;;5063172;28;20296;-63
2021/11/03 05:05:31;;;;;;;9.00;8.20;;;;;;;;;;5061558;28;20464;-62
2021/11/03 05:07:56;;;;;;;8.03;7.33;;;;;;;;;;5067126;28;20555;-62
2021/11/03 05:10:23;;;;;;;7.63;6.93;;;;;;;;;;5061511;28;20284;-62
2021/11/03 05:12:48;;;;;;;9.97;7.67;;;;;;;;;;5069020;28;20303;-62
2021/11/03 05:15:14;;;;;;;10.03;8.80;;;;;;;;;;5069172;28;20463;-64
2021/11/03 05:17:40;;;;;;;8.60;7.73;;;;;;;;;;5062625;28;20220;-62
2021/11/03 05:20:07;;;;;;;8.10;7.30;;;;;;;;;;5063945;28;20470;-61
2021/11/03 05:22:32;;;;;;;8.73;7.93;;;;;;;;;;5069618;28;20240;-62
2021/11/03 05:24:58;;;;;;;9.23;8.30;;;;;;;;;;5068873;28;20509;-62
2021/11/03 05:27:24;;;;;;;8.37;7.53;;;;;;;;;;5061091;28;20295;-63
2021/11/03 05:29:50;;;;;;;15.83;9.60;;;;;;;;;;5062203;28;20221;-62
2021/11/03 05:32:16;;;;;;;9.10;8.20;;;;;;;;;;5068635;28;20470;-63
2021/11/03 05:34:41;;;;;;;7.93;7.23;;;;;;;;;;5059127;28;20621;-63
2021/11/03 05:37:06;;;;;;;8.87;8.07;;;;;;;;;;5065618;28;20300;-63
2021/11/03 05:39:32;;;;;;;9.13;8.10;;;;;;;;;;5068730;28;20280;-62
2021/11/03 05:41:57;;;;;;;10.97;7.90;;;;;;;;;;5062217;28;20221;-61
2021/11/03 05:44:23;;;;;;;9.30;8.50;;;;;;;;;;5069487;28;20252;-62
2021/11/03 05:46:54;;;;;;;8.40;7.47;;;;;;;;;;5066103;28;20216;-62
2021/11/03 05:49:30;;;;;;;8.73;7.90;;;;;;;;;;5063936;28;20220;-62
2021/11/03 05:51:56;;;;;;;9.03;8.23;;;;;;;;;;5064634;28;20487;-62
2021/11/03 05:54:25;;;;;;;8.33;7.53;;;;;;;;;;5071324;28;20431;-61
2021/11/03 05:56:51;;;;;;;9.13;7.60;;;;;;;;;;5068708;28;20459;-62
2021/11/03 05:59:16;;;;;;;10.83;9.83;;;;;;;;;;5063152;28;20473;-62
2021/11/03 06:01:42;;;;;;;8.97;8.13;;;;;;;;;;5065757;28;20451;-63
2021/11/03 06:04:07;;;;;;;9.67;8.67;;;;;;;;;;5071175;28;20221;-63
2021/11/03 06:06:33;;;;;;;10.43;9.40;;;;;;;;;;5069700;28;20220;-62
2021/11/03 06:08:59;;;;;;;10.50;9.50;;;;;;;;;;5064939;28;20287;-62
2021/11/03 06:11:26;;;;;;;9.60;8.60;;;;;;;;;;5065780;28;20875;-62
2021/11/03 06:13:52;;;;;;;11.23;9.57;;;;;;;;;;5071573;28;20578;-63
2021/11/03 06:16:17;;;;;;;8.93;8.13;;;;;;;;;;5069729;28;20430;-62
2021/11/03 06:18:43;;;;;;;9.07;8.27;;;;;;;;;;5063677;28;20212;-62
2021/11/03 06:21:10;;;;;;;10.40;9.40;;;;;;;;;;5067648;28;20244;-62
2021/11/03 06:23:36;;;;;;;10.53;9.53;;;;;;;;;;5070290;28;20592;-62
2021/11/03 06:26:01;;;;;;;9.73;8.83;;;;;;;;;;5069918;28;20515;-62
2021/11/03 06:28:26;;;;;;;9.87;8.93;;;;;;;;;;5064194;28;20227;-62
2021/11/03 06:30:52;;;;;;;8.80;8.00;;;;;;;;;;5067225;28;20223;-63
2021/11/03 06:33:17;;;;;;;11.40;9.03;;;;;;;;;;5069115;28;20218;-63
2021/11/03 06:35:44;;;;;;;12.17;9.20;;;;;;;;;;5069070;28;20224;-62
2021/11/03 06:38:10;;;;;;;11.13;9.87;;;;;;;;;;5061509;28;20216;-63
2021/11/03 06:40:36;;;;;;;11.57;9.07;;;;;;;;;;5061277;28;20487;-62
2021/11/03 06:43:02;;;;;;;10.87;9.30;;;;;;;;;;5067662;28;20993;-62
2021/11/03 06:45:27;;;;;;;9.77;8.30;;;;;;;;;;5065208;28;20781;-62
2021/11/03 06:47:53;;;;;;;9.73;8.83;;;;;;;;;;5060573;28;20907;-63
2021/11/03 06:50:23;;;;;;;10.20;9.17;;;;;;;;;;5062475;28;20668;-62
2021/11/03 06:52:50;;;;;;;10.03;8.60;;;;;;;;;;5067405;28;20220;-62
2021/11/03 06:55:16;;;;;;;9.93;8.93;;;;;;;;;;5066406;28;20494;-63
2021/11/03 06:57:41;;;;;;;8.90;7.93;;;;;;;;;;5060286;28;20846;-61
2021/11/03 07:00:12;;;;;;;8.80;8.00;;;;;;;;;;5061819;28;20370;-63
2021/11/03 07:02:37;;;;;;;9.70;8.80;;;;;;;;;;5066623;28;20213;-62
2021/11/03 07:05:03;;;;;;;10.30;9.30;;;;;;;;;;5066655;28;20952;-63
2021/11/03 07:07:28;;;;;;;9.40;8.50;;;;;;;;;;5060081;28;20308;-62
2021/11/03 07:09:54;;;;;;;9.70;8.33;;;;;;;;;;5061392;28;20470;-62
2021/11/03 07:12:20;;;;;;;11.60;9.33;;;;;;;;;;5066919;28;20216;-62
2021/11/03 07:14:45;;;;;;;11.57;8.77;;;;;;;;;;5065363;28;20303;-62
2021/11/03 07:17:12;;;;;;;14.93;9.27;;;;;;;;;;5060166;28;20495;-63
2021/11/03 07:19:41;;;;;;;10.70;9.20;;;;;;;;;;5061351;28;20220;-63
2021/11/03 07:22:07;;;;;;;10.27;9.27;;;;;;;;;;5066962;28;20479;-62
2021/11/03 07:24:33;;;;;;;12.20;9.33;;;;;;;;;;5065239;28;20437;-62
2021/11/03 07:26:58;;;;;;;9.37;8.43;;;;;;;;;;5060276;28;20955;-62
2021/11/03 07:29:24;;;;;;;9.70;8.70;;;;;;;;;;5061244;28;20520;-63
2021/11/03 07:31:49;;;;;;;16.37;9.20;;;;;;;;;;5066212;28;20221;-62
2021/11/03 07:34:14;;;;;;;12.63;9.60;;;;;;;;;;5039913;28;20726;-63
2021/11/03 07:36:40;;;;;;;13.73;9.10;;;;;;;;;;5066372;28;20225;-63
2021/11/03 07:39:05;;;;;;;13.20;9.30;;;;;;;;;;5066817;28;20212;-62
2021/11/03 07:41:31;;;;;;;10.37;8.70;;;;;;;;;;5059237;28;20227;-61
2021/11/03 07:43:56;;;;;;;17.10;9.13;;;;;;;;;;5060370;28;20289;-62
2021/11/03 07:46:22;;;;;;;16.30;9.80;;;;;;;;;;5066576;28;20247;-62
2021/11/03 07:48:47;;;;;;;10.43;8.13;;;;;;;;;;5048210;28;20237;-61
2021/11/03 07:51:15;;;;;;;10.30;9.27;;;;;;;;;;5059390;28;20228;-62
2021/11/03 07:53:41;;;;;;;9.00;8.10;;;;;;;;;;5059878;28;20228;-62
2021/11/03 07:56:13;;;;;;;12.40;8.73;;;;;;;;;;5067887;28;20501;-62
2021/11/03 07:58:38;;;;;;;14.10;8.97;;;;;;;;;;5069758;28;20804;-63
2021/11/03 08:01:06;;;;;;;13.67;9.30;;;;;;;;;;5063438;28;20455;-62
2021/11/03 08:03:31;;;;;;;15.50;9.73;;;;;;;;;;5062337;28;20675;-62
2021/11/03 08:05:57;;;;;;;12.57;8.43;;;;;;;;;;5069309;28;20464;-62
2021/11/03 08:08:25;;;;;;;9.77;8.83;;;;;;;;;;5069862;28;20251;-63
2021/11/03 08:10:53;;;;;;;10.70;9.60;;;;;;;;;;5063085;28;20224;-62
2021/11/03 08:13:19;;;;;;;9.30;8.30;;;;;;;;;;5062913;28;20490;-62
2021/11/03 08:15:47;;;;;;;16.20;9.83;;;;;;;;;;5068507;28;20522;-63
2021/11/03 08:18:14;;;;;;;9.90;8.97;;;;;;;;;;5069395;28;20487;-62
2021/11/03 08:20:40;;;;;;;9.17;8.20;;;;;;;;;;5063308;28;20509;-62
2021/11/03 08:23:06;;;;;;;10.17;9.03;;;;;;;;;;5062475;28;20517;-62
2021/11/03 08:25:34;;;;;;;11.20;9.00;;;;;;;;;;5068023;28;20472;-62
2021/11/03 08:28:00;;;;;;;10.27;8.80;;;;;;;;;;5069292;28;20470;-64
2021/11/03 08:30:25;;;;;;;9.80;8.80;;;;;;;;;;5063692;28;20888;-62
2021/11/03 08:33:05;;;;;;;10.13;9.13;;;;;;;;;;5058978;28;20274;-62
2021/11/03 08:35:31;;;;;;;14.70;9.90;;;;;;;;;;5055476;28;20265;-62
2021/11/03 08:38:00;;;;;;;9.90;8.90;;;;;;;;;;5061567;28;20471;-62
2021/11/03 08:40:26;;;;;;;9.43;8.53;;;;;;;;;;5063967;28;20227;-62
2021/11/03 08:42:52;;;;;;;9.57;8.00;;;;;;;;;;5068837;28;20842;-63
2021/11/03 08:45:17;;;;;;;10.13;9.00;;;;;;;;;;5066535;28;20469;-62
2021/11/03 08:47:43;;;;;;;9.67;8.73;;;;;;;;;;5061616;28;20228;-62
2021/11/03 08:50:13;;;;;;;9.20;8.40;;;;;;;;;;5065203;28;20554;-62
2021/11/03 08:52:39;;;;;;;12.80;9.13;;;;;;;;;;5068867;28;20217;-62
2021/11/03 08:55:04;;;;;;;10.20;9.17;;;;;;;;;;5066362;28;20473;-62
2021/11/03 08:57:33;;;;;;;11.53;9.13;;;;;;;;;;5062241;28;20216;-63
2021/11/03 08:59:58;;;;;;;11.33;10.13;;;;;;;;;;5063177;28;20233;-63
2021/11/03 09:02:25;;;;;;;10.43;8.90;;;;;;;;;;5068129;28;20986;-63
2021/11/03 09:04:51;;;;;;;10.63;8.73;;;;;;;;;;5065420;28;20217;-63
2021/11/03 09:07:16;;;;;;;11.77;8.80;;;;;;;;;;5061226;28;20478;-62
2021/11/03 09:09:43;;;;;;;10.60;9.03;;;;;;;;;;5064050;28;20498;-61
2021/11/03 09:12:08;;;;;;;13.00;9.27;;;;;;;;;;5067689;28;20224;-62
2021/11/03 09:14:34;;;;;;;10.63;8.57;;;;;;;;;;5066364;28;20461;-62
2021/11/03 09:16:59;;;;;;;11.60;9.00;;;;;;;;;;5060628;28;22048;-62
2021/11/03 09:19:24;;;;;;;10.20;8.90;;;;;;;;;;5064002;28;20270;-62
2021/11/03 09:21:49;;;;;;;9.73;8.60;;;;;;;;;;5068170;28;20632;-63
2021/11/03 09:24:15;;;;;;;11.70;9.40;;;;;;;;;;5065236;28;20353;-62
2021/11/03 09:26:41;;;;;;;9.67;8.73;;;;;;;;;;5060840;28;20296;-62
2021/11/03 09:29:07;;;;;;;10.10;8.50;;;;;;;;;;5064593;28;20229;-63
2021/11/03 09:31:32;;;;;;;9.80;8.80;;;;;;;;;;5067942;28;20464;-62
2021/11/03 09:33:59;;;;;;;15.90;9.83;;;;;;;;;;5050628;28;20364;-61
2021/11/03 09:36:28;;;;;;;12.20;9.40;;;;;;;;;;5066016;28;20623;-60
2021/11/03 09:38:53;;;;;;;9.33;8.27;;;;;;;;;;5065325;28;20459;-62
2021/11/03 09:41:44;;;;;;;12.73;8.57;;;;;;;;;;5061484;28;20473;-60
2021/11/03 09:44:14;;;;;;;17.63;9.80;;;;;;;;;;5061602;28;20359;-60
2021/11/03 09:46:44;;;;;;;10.77;9.17;;;;;;;;;;5066576;28;20464;-60
2021/11/03 09:49:10;;;;;;;10.10;9.03;;;;;;;;;;5068325;28;20456;-60
2021/11/03 09:51:37;;;;;;;9.37;8.47;;;;;;;;;;5064688;28;20953;-60
2021/11/03 09:54:10;;;;;;;12.27;9.93;;;;;;;;;;5060201;28;20961;-60
2021/11/03 09:56:39;;;;;;;11.40;9.00;;;;;;;;;;5064434;28;20525;-61
2021/11/03 09:59:30;;;;;;;10.43;9.43;;;;;;;;;;5068142;28;20517;-60
2021/11/03 10:02:13;;;;;;;10.90;9.70;;;;;;;;;;5066876;28;20471;-61
2021/11/03 10:04:51;;;;;;;13.40;10.40;;;;;;;;;;5046150;28;20545;-61
2021/11/03 10:07:26;;;;;;;13.20;10.07;;;;;;;;;;5061236;28;20478;-60
2021/11/03 10:09:51;;;;;;;12.80;10.37;;;;;;;;;;5046205;28;20459;-59
2021/11/03 10:12:19;;;;;;;11.73;9.30;;;;;;;;;;5068038;28;20465;-61
2021/11/03 10:14:45;;;;;;;13.07;10.10;;;;;;;;;;5065652;28;20351;-60
2021/11/03 10:17:22;;;;;;;11.47;10.30;;;;;;;;;;5061358;28;20490;-60
2021/11/03 10:19:47;;;;;;;10.73;9.53;;;;;;;;;;5061154;28;20466;-59
2021/11/03 10:22:41;;;;;;;10.27;9.27;;;;;;;;;;5067918;28;20543;-60
2021/11/03 10:25:21;;;;;;;10.23;9.27;;;;;;;;;;5067279;28;20239;-60
2021/11/03 10:27:54;;;;;;;9.80;8.90;;;;;;;;;;5065817;28;20471;-60
2021/11/03 10:30:28;;;;;;;10.40;8.83;;;;;;;;;;5060590;28;20451;-60
2021/11/03 10:32:54;;;;;;;11.40;9.90;;;;;;;;;;5061061;28;20854;-60
2021/11/03 10:35:26;;;;;;;11.00;9.90;;;;;;;;;;5062999;28;20462;-60
2021/11/03 10:38:08;;;;;;;13.47;10.60;;;;;;;;;;5060794;28;20787;-60
2021/11/03 10:40:48;;;;;;;11.53;9.60;;;;;;;;;;5061095;28;20463;-60
2021/11/03 10:43:26;;;;;;;10.73;9.63;;;;;;;;;;5048112;28;20553;-60
2021/11/03 10:45:59;;;;;;;11.47;9.70;;;;;;;;;;5060843;28;20464;-64
2021/11/03 10:48:27;;;;;;;12.23;10.83;;;;;;;;;;5064366;28;20870;-65
2021/11/03 10:50:55;;;;;;;10.90;9.30;;;;;;;;;;5066174;28;20479;-62
2021/11/03 10:53:24;;;;;;;11.47;9.90;;;;;;;;;;5064126;28;20523;-67
2021/11/03 10:56:02;;;;;;;16.90;10.30;;;;;;;;;;5059560;28;20465;-62
2021/11/03 10:58:37;;;;;;;10.30;9.17;;;;;;;;;;5060601;28;20478;-62
2021/11/03 11:01:08;;;;;;;9.40;7.40;;;;;;;;;;5046570;28;20458;-62
2021/11/03 11:03:36;;;;;;;13.13;7.87;;;;;;;;;;5060212;28;20482;-63
2021/11/03 11:06:18;;;;;;;8.83;8.03;;;;;;;;;;5063388;28;20619;-62
2021/11/03 11:08:56;;;;;;;8.30;7.37;;;;;;;;;;5072865;28;20566;-62
2021/11/03 11:11:23;;;;;;;8.47;7.57;;;;;;;;;;5065047;28;20475;-63
2021/11/03 11:13:57;;;;;;;8.10;7.40;;;;;;;;;;5059552;28;20971;-63
2021/11/03 11:16:48;;;;;;;9.80;7.33;;;;;;;;;;5060727;28;20459;-62
2021/11/03 11:19:41;;;;;;;8.37;7.63;;;;;;;;;;5051692;28;20850;-68
2021/11/03 11:22:35;;;;;;;7.60;6.87;;;;;;;;;;5046763;28;20863;-63
2021/11/03 11:25:12;;;;;;;8.53;7.73;;;;;;;;;;5067203;28;20498;-62
2021/11/03 11:27:46;;;;;;;7.77;6.90;;;;;;;;;;5065399;28;20470;-62
2021/11/03 11:30:16;;;;;;;8.10;7.30;;;;;;;;;;5059836;28;20457;-62
2021/11/03 11:33:04;;;;;;;9.33;6.40;;;;;;;;;;5063082;28;20464;-62
2021/11/03 11:35:56;;;;;;;7.43;6.73;;;;;;;;;;5066989;28;20474;-63
2021/11/03 11:38:29;;;;;;;8.27;7.30;;;;;;;;;;5050950;28;20561;-62
2021/11/03 11:41:05;;;;;;;8.47;7.77;;;;;;;;;;5062359;28;20485;-62
2021/11/03 11:43:36;;;;;;;8.73;7.83;;;;;;;;;;5066831;28;20463;-67
2021/11/03 11:46:16;;;;;;;8.00;7.20;;;;;;;;;;5069775;28;20522;-63
2021/11/03 11:48:42;;;;;;;8.70;7.90;;;;;;;;;;5068847;28;20477;-61
2021/11/03 11:51:24;;;;;;;8.50;7.80;;;;;;;;;;5063114;28;20466;-61
2021/11/03 11:53:50;;;;;;;7.93;7.23;;;;;;;;;;5062060;28;20839;-61
2021/11/03 11:56:29;;;;;;;8.73;7.63;;;;;;;;;;5069367;28;20538;-67
2021/11/03 11:59:06;;;;;;;7.67;7.07;;;;;;;;;;5070194;28;20232;-60
2021/11/03 12:01:47;;;;;;;7.97;7.17;;;;;;;;;;5067292;28;20462;-63
2021/11/03 12:04:20;;;;;;;8.13;7.30;;;;;;;;;;5063710;28;20568;-60
2021/11/03 12:06:51;;;;;;;9.10;8.20;;;;;;;;;;5061180;28;20467;-59
2021/11/03 12:09:46;;;;;;;8.20;7.50;;;;;;;;;;5068666;28;20468;-59
2021/11/03 12:12:11;;;;;;;8.53;7.63;;;;;;;;;;5069916;28;20829;-59
2021/11/03 12:14:38;;;;;;;6.93;6.30;;;;;;;;;;5068031;28;20466;-59
2021/11/03 12:17:35;;;;;;;8.30;7.30;;;;;;;;;;5063242;28;20219;-59
2021/11/03 12:20:05;;;;;;;8.30;6.13;;;;;;;;;;5062316;28;20498;-59
2021/11/03 12:22:30;;;;;;;6.90;6.30;;;;;;;;;;5065853;28;20466;-59
2021/11/03 12:25:13;;;;;;;7.70;6.33;;;;;;;;;;5069511;28;20971;-60
2021/11/03 12:27:39;;;;;;;7.43;6.70;;;;;;;;;;5067661;28;20254;-59
2021/11/03 12:30:34;;;;;;;6.97;6.23;;;;;;;;;;5061350;28;20502;-60
2021/11/03 12:33:09;;;;;;;5.57;5.10;;;;;;;;;;5060158;28;20233;-60
2021/11/03 12:35:35;;;;;;;5.93;5.33;;;;;;;;;;5067438;28;20466;-59
2021/11/03 12:38:26;;;;;;;7.17;6.47;;;;;;;;;;5062652;28;20523;-60
2021/11/03 12:40:52;;;;;;;6.13;5.63;;;;;;;;;;5062314;28;20232;-59
2021/11/03 12:43:23;;;;;;;6.30;5.70;;;;;;;;;;5066303;28;20547;-59
2021/11/03 12:46:03;;;;;;;6.40;5.80;;;;;;;;;;5068272;28;20454;-59
2021/11/03 12:48:38;;;;;;;6.10;5.60;;;;;;;;;;5065815;28;20450;-59
2021/11/03 12:51:27;;;;;;;6.03;5.50;;;;;;;;;;5062021;28;20454;-59
2021/11/03 12:54:27;;;;;;;5.40;4.87;;;;;;;;;;5061372;28;20963;-58
2021/11/03 12:57:03;;;;;;;8.50;5.33;;;;;;;;;;5063303;28;20468;-61
2021/11/03 12:59:34;;;;;;;5.50;4.50;;;;;;;;;;5049710;28;20519;-62
2021/11/03 13:02:15;;;;;;;5.83;5.23;;;;;;;;;;5061654;28;20478;-60
2021/11/03 13:04:46;;;;;;;5.30;4.80;;;;;;;;;;5065470;28;20547;-60
2021/11/03 13:07:21;;;;;;;5.83;4.57;;;;;;;;;;5060163;28;20560;-59
2021/11/03 13:09:58;;;;;;;4.77;4.47;;;;;;;;;;5066096;28;20542;-60
2021/11/03 13:12:32;;;;;;;4.87;4.37;;;;;;;;;;5061972;28;20493;-59
2021/11/03 13:15:23;;;;;;;4.40;4.00;;;;;;;;;;5061866;28;20456;-60
2021/11/03 13:17:56;;;;;;;4.30;3.90;;;;;;;;;;5064115;28;20444;-61
2021/11/03 13:20:28;;;;;;;4.97;4.03;;;;;;;;;;5068810;28;20492;-60
2021/11/03 13:22:54;;;;;;;4.23;3.83;;;;;;;;;;5056622;28;20474;-59
2021/11/03 13:25:43;;;;;;;4.07;3.70;;;;;;;;;;5059745;28;20465;-59
2021/11/03 13:28:30;;;;;;;4.33;3.93;;;;;;;;;;5052027;28;20455;-59
2021/11/03 13:31:02;;;;;;;4.83;4.40;;;;;;;;;;5061090;28;20451;-59
2021/11/03 13:33:37;;;;;;;4.20;3.80;;;;;;;;;;5054780;28;20524;-59
2021/11/03 13:36:15;;;;;;;5.00;4.50;;;;;;;;;;5067800;28;20465;-59
2021/11/03 13:38:52;;;;;;;5.50;4.10;;;;;;;;;;5062521;28;20463;-59
2021/11/03 13:41:35;;;;;;;4.83;4.40;;;;;;;;;;5060001;28;20461;-59
2021/11/03 13:44:24;;;;;;;5.10;4.60;;;;;;;;;;5061465;28;20968;-59
2021/11/03 13:46:53;;;;;;;5.63;5.10;;;;;;;;;;5063754;28;20547;-60
2021/11/03 13:49:24;;;;;;;5.50;5.00;;;;;;;;;;5067599;28;20476;-60
2021/11/03 13:52:12;;;;;;;4.90;4.40;;;;;;;;;;5065737;28;20474;-59
2021/11/03 13:54:54;;;;;;;5.37;4.87;;;;;;;;;;5047291;28;20887;-61
2021/11/03 13:57:26;;;;;;;5.80;5.27;;;;;;;;;;5060356;28;20888;-59
2021/11/03 14:00:04;;;;;;;5.50;4.63;;;;;;;;;;5064015;28;20463;-59
2021/11/03 14:02:34;;;;;;;5.80;5.27;;;;;;;;;;5068514;28;20791;-60
2021/11/03 14:05:00;;;;;;;6.60;4.90;;;;;;;;;;5066938;28;20529;-59
2021/11/03 14:07:27;;;;;;;5.50;4.77;;;;;;;;;;5060960;28;20841;-59
2021/11/03 14:09:55;;;;;;;4.33;3.93;;;;;;;;;;5061251;28;20548;-58
2021/11/03 14:12:21;;;;;;;5.63;4.93;;;;;;;;;;5067666;28;20467;-59
2021/11/03 14:14:48;;;;;;;4.60;4.20;;;;;;;;;;5066068;28;20791;-59
2021/11/03 14:17:21;;;;;;;4.73;4.33;;;;;;;;;;5059891;28;20465;-59
2021/11/03 14:19:56;;;;;;;7.73;4.00;;;;;;;;;;5060552;28;20452;-59
2021/11/03 14:22:31;;;;;;;4.67;4.27;;;;;;;;;;5066045;28;20517;-59
2021/11/03 14:24:57;;;;;;;8.10;4.90;;;;;;;;;;5067099;28;20786;-59
2021/11/03 14:27:23;;;;;;;4.93;4.20;;;;;;;;;;5063253;28;20474;-59
2021/11/03 14:29:49;;;;;;;5.30;3.90;;;;;;;;;;5060141;28;20463;-61
2021/11/03 14:32:16;;;;;;;6.30;5.13;;;;;;;;;;5064829;28;20794;-62
2021/11/03 14:34:45;;;;;;;5.70;4.80;;;;;;;;;;5056123;28;20605;-62
2021/11/03 14:37:11;;;;;;;4.70;4.07;;;;;;;;;;5064057;28;20456;-63
2021/11/03 14:39:39;;;;;;;6.00;5.13;;;;;;;;;;5067408;28;20463;-62
2021/11/03 14:42:05;;;;;;;5.10;4.30;;;;;;;;;;5064990;28;20771;-68
2021/11/03 14:44:30;;;;;;;4.57;4.00;;;;;;;;;;5055503;28;20547;-63
2021/11/03 14:46:59;;;;;;;5.47;3.90;;;;;;;;;;5051772;28;20459;-62
2021/11/03 14:49:41;;;;;;;6.13;4.93;;;;;;;;;;5052271;28;20288;-62
2021/11/03 14:52:14;;;;;;;4.60;3.97;;;;;;;;;;5051629;28;20458;-62